createdAt,value
2022-09-30T00:01:45.628Z,19.30
2022-09-30T00:04:15.573Z,19.50
2022-09-30T00:06:43.963Z,19.50
2022-09-30T00:09:13.148Z,19.60
2022-09-30T00:11:42.387Z,19.70
2022-09-30T00:14:14.369Z,19.80
2022-09-30T00:16:43.836Z,19.80
2022-09-30T00:19:14.141Z,19.90
2022-09-30T00:21:42.585Z,19.90
2022-09-30T00:24:11.306Z,19.80
2022-09-30T00:26:39.671Z,19.80
2022-09-30T00:29:08.090Z,19.80
2022-09-30T00:31:36.567Z,19.80
2022-09-30T00:34:08.303Z,19.90
2022-09-30T00:36:39.053Z,19.90
2022-09-30T00:39:08.264Z,19.70
2022-09-30T00:41:37.641Z,19.70
2022-09-30T00:44:20.858Z,19.70
2022-09-30T00:46:49.305Z,19.70
2022-09-30T00:49:20.028Z,19.70
2022-09-30T00:51:52.255Z,19.80
2022-09-30T00:54:22.669Z,19.80
2022-09-30T00:56:53.791Z,19.80
2022-09-30T00:59:25.277Z,19.80
2022-09-30T01:01:53.866Z,19.80
2022-09-30T01:04:23.201Z,19.70
2022-09-30T01:06:53.036Z,19.90
2022-09-30T01:09:21.951Z,19.90
2022-09-30T01:11:50.486Z,19.80
2022-09-30T01:14:21.016Z,19.80
2022-09-30T01:16:56.953Z,19.90
2022-09-30T01:19:39.310Z,19.90
2022-09-30T01:22:15.824Z,19.90
2022-09-30T01:24:56.084Z,20.00
2022-09-30T01:27:31.433Z,20.00
2022-09-30T01:30:10.488Z,20.00
2022-09-30T01:32:51.681Z,20.00
2022-09-30T01:35:24.415Z,19.90
2022-09-30T01:38:01.838Z,19.90
2022-09-30T01:40:34.608Z,19.90
2022-09-30T01:43:06.781Z,19.80
2022-09-30T01:45:36.463Z,19.70
2022-09-30T01:48:09.156Z,19.60
2022-09-30T01:50:44.251Z,19.60
2022-09-30T01:53:16.891Z,19.50
2022-09-30T01:55:48.545Z,19.50
2022-09-30T01:58:20.503Z,19.60
2022-09-30T02:00:52.293Z,19.70
2022-09-30T02:03:25.309Z,19.60
2022-09-30T02:05:55.899Z,19.60
2022-09-30T02:08:26.058Z,19.70
2022-09-30T02:10:57.134Z,19.70
2022-09-30T02:13:29.901Z,19.70
2022-09-30T02:16:00.705Z,19.60
2022-09-30T02:18:32.996Z,19.60
2022-09-30T02:21:03.117Z,19.80
2022-09-30T02:23:33.734Z,19.80
2022-09-30T02:26:05.997Z,19.80
2022-09-30T02:28:35.784Z,19.90
2022-09-30T02:31:05.565Z,19.90
2022-09-30T02:33:37.569Z,19.90
2022-09-30T02:36:09.800Z,20.00
2022-09-30T02:38:40.921Z,20.00
2022-09-30T02:41:10.656Z,19.90
2022-09-30T02:43:42.130Z,20.00
2022-09-30T02:46:13.702Z,20.00
2022-09-30T02:48:46.924Z,20.00
2022-09-30T02:51:18.677Z,19.90
2022-09-30T02:53:50.566Z,19.90
2022-09-30T02:56:23.697Z,19.90
2022-09-30T02:58:53.034Z,19.90
2022-09-30T03:01:21.559Z,19.80
2022-09-30T03:03:52.788Z,19.70
2022-09-30T03:06:21.299Z,19.70
2022-09-30T03:08:49.673Z,19.70
2022-09-30T03:11:19.224Z,19.70
2022-09-30T03:13:55.828Z,19.70
2022-09-30T03:16:30.772Z,19.60
2022-09-30T03:19:05.185Z,19.60
2022-09-30T03:21:42.820Z,19.50
2022-09-30T03:24:18.818Z,19.50
2022-09-30T03:26:53.686Z,19.40
2022-09-30T03:29:25.924Z,19.40
2022-09-30T03:32:01.427Z,19.40
2022-09-30T03:34:37.808Z,19.40
2022-09-30T03:37:09.697Z,19.40
2022-09-30T03:39:44.128Z,19.40
2022-09-30T03:42:22.094Z,19.50
2022-09-30T03:44:56.840Z,19.40
2022-09-30T03:47:26.478Z,19.40
2022-09-30T03:50:00.079Z,19.40
2022-09-30T03:52:31.150Z,19.40
2022-09-30T03:55:01.272Z,19.30
2022-09-30T03:57:30.118Z,19.30
2022-09-30T03:59:58.819Z,19.30
2022-09-30T04:02:27.518Z,19.20
2022-09-30T04:04:57.582Z,19.20
2022-09-30T04:07:26.080Z,19.20
2022-09-30T04:09:54.438Z,19.20
2022-09-30T04:12:23.140Z,19.20
2022-09-30T04:14:51.604Z,19.20
2022-09-30T04:17:19.960Z,19.20
2022-09-30T04:19:48.293Z,19.20
2022-09-30T04:22:18.148Z,19.20
2022-09-30T04:24:47.496Z,19.20
2022-09-30T04:27:15.837Z,19.10
2022-09-30T04:29:44.198Z,19.20
2022-09-30T04:32:12.588Z,19.40
2022-09-30T04:34:40.982Z,19.50
2022-09-30T04:37:11.032Z,19.60
2022-09-30T04:39:40.955Z,19.60
2022-09-30T04:42:09.314Z,19.50
2022-09-30T04:44:37.634Z,19.50
2022-09-30T04:47:06.790Z,19.30
2022-09-30T04:49:35.191Z,19.10
2022-09-30T04:52:03.571Z,19.00
2022-09-30T04:54:31.903Z,19.00
2022-09-30T04:57:01.605Z,18.90
2022-09-30T04:59:30.045Z,18.90
2022-09-30T05:01:58.478Z,19.00
2022-09-30T05:04:27.645Z,19.00
2022-09-30T05:06:56.623Z,19.10
2022-09-30T05:09:25.122Z,19.20
2022-09-30T05:11:53.693Z,19.10
2022-09-30T05:14:23.389Z,19.20
2022-09-30T05:16:51.718Z,19.20
2022-09-30T05:19:20.144Z,19.20
2022-09-30T05:21:48.534Z,19.10
2022-09-30T05:24:17.636Z,19.30
2022-09-30T05:26:46.062Z,19.30
2022-09-30T05:29:14.614Z,19.30
2022-09-30T05:31:44.481Z,19.30
2022-09-30T05:34:12.951Z,19.40
2022-09-30T05:36:41.355Z,19.40
2022-09-30T05:39:10.448Z,19.60
2022-09-30T05:41:38.878Z,19.60
2022-09-30T05:44:09.237Z,19.60
2022-09-30T05:46:37.624Z,19.60
2022-09-30T05:49:07.444Z,19.60
2022-09-30T05:51:36.468Z,19.70
2022-09-30T05:54:04.793Z,19.70
2022-09-30T05:56:34.673Z,19.70
2022-09-30T05:59:03.103Z,19.80
2022-09-30T06:01:31.532Z,19.80
2022-09-30T06:04:00.242Z,19.80
2022-09-30T06:06:30.362Z,19.90
2022-09-30T06:09:00.059Z,19.90
2022-09-30T06:11:28.418Z,20.00
2022-09-30T06:13:57.473Z,20.00
2022-09-30T06:16:26.148Z,20.10
2022-09-30T06:18:55.454Z,20.20
2022-09-30T06:21:23.974Z,20.20
2022-09-30T06:23:53.772Z,20.20
2022-09-30T06:26:22.168Z,20.30
2022-09-30T06:28:51.774Z,20.40
2022-09-30T06:31:20.206Z,20.40
2022-09-30T06:33:48.590Z,20.40
2022-09-30T06:36:17.278Z,20.50
2022-09-30T06:38:45.657Z,20.50
2022-09-30T06:41:15.618Z,20.60
2022-09-30T06:43:47.445Z,20.60
2022-09-30T06:46:29.766Z,20.70
2022-09-30T06:49:13.337Z,20.80
2022-09-30T06:51:42.580Z,20.90
2022-09-30T06:54:11.347Z,20.90
2022-09-30T06:56:41.282Z,21.00
2022-09-30T06:59:09.618Z,21.00
2022-09-30T07:01:38.302Z,21.00
2022-09-30T07:04:09.748Z,21.00
2022-09-30T07:06:39.082Z,20.90
2022-09-30T07:09:08.038Z,20.90
2022-09-30T07:11:37.901Z,20.90
2022-09-30T07:14:07.969Z,20.90
2022-09-30T07:16:36.354Z,21.00
2022-09-30T07:19:05.745Z,21.00
2022-09-30T07:21:34.479Z,21.10
2022-09-30T07:24:03.032Z,21.00
2022-09-30T07:26:31.810Z,21.10
2022-09-30T07:29:01.193Z,21.20
2022-09-30T07:31:34.126Z,21.20
2022-09-30T07:34:03.944Z,21.20
2022-09-30T07:36:33.958Z,21.30
2022-09-30T07:39:06.341Z,21.30
2022-09-30T07:41:36.680Z,21.40
2022-09-30T07:44:05.619Z,21.30
2022-09-30T07:46:36.375Z,21.30
2022-09-30T07:49:05.643Z,21.20
2022-09-30T07:51:34.961Z,21.40
2022-09-30T07:54:05.859Z,21.40
2022-09-30T07:56:57.824Z,21.30
2022-09-30T07:59:23.617Z,21.30
2022-09-30T08:01:53.973Z,21.20
2022-09-30T08:04:23.619Z,21.30
2022-09-30T08:06:52.987Z,21.20
2022-09-30T08:09:22.446Z,21.30
2022-09-30T08:11:50.961Z,21.20
2022-09-30T08:14:20.699Z,21.10
2022-09-30T08:16:49.538Z,21.10
2022-09-30T08:19:20.122Z,21.20
2022-09-30T08:21:48.843Z,21.10
2022-09-30T08:24:17.312Z,21.20
2022-09-30T08:26:45.787Z,21.20
2022-09-30T08:29:24.927Z,21.10
2022-09-30T08:31:58.632Z,21.10
2022-09-30T08:34:33.936Z,21.00
2022-09-30T08:37:07.514Z,21.10
2022-09-30T08:39:37.491Z,21.10
2022-09-30T08:42:35.505Z,21.10
2022-09-30T08:45:08.185Z,20.90
2022-09-30T08:47:41.940Z,20.90
2022-09-30T08:50:17.057Z,20.90
2022-09-30T08:52:49.918Z,20.90
2022-09-30T08:55:21.841Z,20.90
2022-09-30T08:57:50.352Z,20.80
2022-09-30T09:00:19.363Z,20.70
2022-09-30T09:02:50.375Z,20.70
2022-09-30T09:05:25.845Z,20.70
2022-09-30T09:08:01.035Z,20.60
2022-09-30T09:10:33.521Z,20.60
2022-09-30T09:13:07.654Z,20.60
2022-09-30T09:15:45.083Z,20.60
2022-09-30T09:18:26.773Z,20.60
2022-09-30T09:20:57.865Z,20.50
2022-09-30T09:23:26.682Z,20.50
2022-09-30T09:25:56.026Z,20.40
2022-09-30T09:28:27.182Z,20.40
2022-09-30T09:30:58.412Z,20.40
2022-09-30T09:33:29.786Z,20.30
2022-09-30T09:36:06.821Z,20.30
2022-09-30T09:38:40.360Z,20.20
2022-09-30T09:41:17.000Z,20.20
2022-09-30T09:43:51.422Z,20.20
2022-09-30T09:46:23.130Z,20.20
2022-09-30T09:48:57.226Z,20.20
2022-09-30T09:51:29.708Z,20.20
2022-09-30T09:54:00.300Z,20.20
2022-09-30T09:56:32.429Z,20.20
2022-09-30T09:59:13.245Z,20.20
2022-09-30T10:01:43.272Z,20.30
2022-09-30T10:04:15.723Z,20.30
2022-09-30T10:06:48.623Z,20.20
2022-09-30T10:09:23.772Z,20.30
2022-09-30T10:11:52.484Z,20.40
2022-09-30T10:14:22.336Z,20.40
2022-09-30T10:16:50.782Z,20.60
2022-09-30T10:19:21.156Z,20.70
2022-09-30T10:21:52.965Z,20.70
2022-09-30T10:24:29.262Z,20.80
2022-09-30T10:26:57.759Z,20.90
2022-09-30T10:29:27.754Z,20.80
2022-09-30T10:31:59.148Z,20.80
2022-09-30T10:34:30.057Z,20.70
2022-09-30T10:37:01.370Z,20.60
2022-09-30T10:39:31.310Z,20.60
2022-09-30T10:42:03.109Z,20.60
2022-09-30T10:44:31.893Z,20.50
2022-09-30T10:47:02.622Z,20.40
2022-09-30T10:49:33.227Z,20.30
2022-09-30T10:52:04.167Z,20.20
2022-09-30T10:54:47.788Z,20.00
2022-09-30T10:57:16.934Z,20.00
2022-09-30T10:59:46.656Z,19.90
2022-09-30T11:02:19.180Z,19.90
2022-09-30T11:04:49.928Z,19.90
2022-09-30T11:07:23.245Z,20.00
2022-09-30T11:09:55.093Z,20.00
2022-09-30T11:12:26.950Z,20.00
2022-09-30T11:14:59.027Z,20.00
2022-09-30T11:17:29.548Z,19.90
2022-09-30T11:20:05.811Z,19.90
2022-09-30T11:22:38.412Z,19.90
2022-09-30T11:25:11.021Z,19.90
2022-09-30T11:27:45.010Z,20.00
2022-09-30T11:30:15.812Z,19.90
2022-09-30T11:33:01.262Z,19.90
2022-09-30T11:35:34.590Z,20.00
2022-09-30T11:38:09.645Z,20.00
2022-09-30T11:40:45.142Z,20.00
2022-09-30T11:43:23.632Z,20.20
2022-09-30T11:46:02.921Z,20.30
2022-09-30T11:48:37.213Z,20.30
2022-09-30T11:51:11.367Z,20.40
2022-09-30T11:53:46.403Z,20.30
2022-09-30T11:56:21.851Z,20.30
2022-09-30T11:58:51.641Z,20.40
2022-09-30T12:01:22.943Z,20.40
2022-09-30T12:03:56.206Z,20.40
2022-09-30T12:06:27.711Z,20.50
2022-09-30T12:09:00.050Z,20.60
2022-09-30T12:11:32.243Z,20.60
2022-09-30T12:14:03.140Z,20.60
2022-09-30T12:16:33.049Z,20.60
2022-09-30T12:19:06.415Z,20.60
2022-09-30T12:21:36.293Z,20.70
2022-09-30T12:24:11.551Z,20.70
2022-09-30T12:26:41.649Z,20.70
2022-09-30T12:29:32.750Z,20.70
2022-09-30T12:32:09.388Z,20.80
2022-09-30T12:34:44.577Z,20.80
2022-09-30T12:37:41.927Z,20.80
2022-09-30T12:40:22.603Z,20.80
2022-09-30T12:42:58.629Z,20.90
2022-09-30T12:45:34.641Z,21.10
2022-09-30T12:48:06.779Z,21.10
2022-09-30T12:50:37.064Z,21.10
2022-09-30T12:53:12.243Z,21.20
2022-09-30T12:55:43.042Z,21.20
2022-09-30T12:58:20.466Z,21.20
2022-09-30T13:01:01.141Z,21.20
2022-09-30T13:03:29.818Z,21.20
2022-09-30T13:06:06.387Z,21.20
2022-09-30T13:08:52.492Z,21.20
2022-09-30T13:11:33.282Z,21.30
2022-09-30T13:14:04.593Z,21.20
2022-09-30T13:16:54.979Z,21.10
2022-09-30T13:19:32.828Z,21.10
2022-09-30T13:22:16.037Z,21.00
2022-09-30T13:25:03.856Z,21.00
2022-09-30T13:27:35.887Z,20.90
2022-09-30T13:30:25.786Z,20.90
2022-09-30T13:33:07.008Z,20.80
2022-09-30T13:35:37.609Z,20.90
2022-09-30T13:38:16.708Z,20.90
2022-09-30T13:41:01.807Z,20.90
2022-09-30T13:43:34.466Z,20.90
2022-09-30T13:46:07.547Z,20.90
2022-09-30T13:48:37.647Z,20.90
2022-09-30T13:51:08.235Z,20.90
2022-09-30T13:53:39.306Z,20.80
2022-09-30T13:56:08.753Z,20.80
2022-09-30T13:58:46.365Z,20.80
2022-09-30T14:01:21.613Z,20.70
2022-09-30T14:03:58.183Z,20.70
2022-09-30T14:06:32.288Z,20.60
2022-09-30T14:09:10.597Z,20.70
2022-09-30T14:11:47.841Z,20.70
2022-09-30T14:14:30.130Z,20.70
2022-09-30T14:17:05.141Z,20.80
2022-09-30T14:19:39.529Z,20.90
2022-09-30T14:22:10.329Z,20.90
2022-09-30T14:24:40.346Z,20.90
2022-09-30T14:27:23.291Z,20.90
2022-09-30T14:29:59.553Z,21.00
2022-09-30T14:32:29.793Z,21.00
2022-09-30T14:34:58.661Z,21.10
2022-09-30T14:37:29.010Z,21.10
2022-09-30T14:39:57.428Z,21.20
2022-09-30T14:42:29.679Z,21.20
2022-09-30T14:45:04.566Z,21.30
2022-09-30T14:47:34.690Z,21.30
2022-09-30T14:50:03.846Z,21.30
2022-09-30T14:52:39.617Z,21.40
2022-09-30T14:55:19.029Z,21.40
2022-09-30T14:57:47.905Z,21.50
2022-09-30T15:00:27.950Z,21.60
2022-09-30T15:02:56.827Z,21.60
2022-09-30T15:05:25.790Z,21.70
2022-09-30T15:07:54.793Z,21.80
2022-09-30T15:10:24.366Z,21.80
2022-09-30T15:12:53.970Z,21.90
2022-09-30T15:15:28.702Z,21.90
2022-09-30T15:17:57.189Z,22.00
2022-09-30T15:20:28.719Z,22.00
2022-09-30T15:22:58.711Z,22.10
2022-09-30T15:25:27.129Z,22.10
2022-09-30T15:27:55.825Z,22.10
2022-09-30T15:30:26.453Z,22.10
2022-09-30T15:33:00.298Z,22.20
2022-09-30T15:35:29.418Z,22.10
2022-09-30T15:38:07.214Z,22.10
2022-09-30T15:40:49.017Z,22.10
2022-09-30T15:43:18.477Z,22.10
2022-09-30T15:45:48.631Z,22.20
2022-09-30T15:48:33.164Z,22.20
2022-09-30T15:51:22.880Z,22.20
2022-09-30T15:53:51.503Z,22.10
2022-09-30T15:56:24.962Z,22.00
2022-09-30T15:58:56.948Z,21.90
2022-09-30T16:01:26.771Z,21.90
2022-09-30T16:03:56.446Z,21.90
2022-09-30T16:06:32.638Z,21.80
2022-09-30T16:09:03.144Z,21.80
2022-09-30T16:11:34.849Z,21.80
2022-09-30T16:14:06.131Z,21.80
2022-09-30T16:16:36.006Z,21.70
2022-09-30T16:19:05.353Z,21.70
2022-09-30T16:21:45.410Z,21.60
2022-09-30T16:24:32.304Z,21.60
2022-09-30T16:27:04.504Z,21.60
2022-09-30T16:29:32.860Z,21.60
2022-09-30T16:32:01.449Z,21.60
2022-09-30T16:34:30.893Z,21.60
2022-09-30T16:37:06.549Z,21.50
2022-09-30T16:39:34.916Z,21.50
2022-09-30T16:42:04.533Z,21.50
2022-09-30T16:44:34.397Z,21.50
2022-09-30T16:47:02.909Z,21.50
2022-09-30T16:49:31.289Z,21.50
2022-09-30T16:51:59.689Z,21.50
2022-09-30T16:54:29.526Z,21.50
2022-09-30T16:57:00.290Z,21.50
2022-09-30T16:59:32.678Z,21.40
2022-09-30T17:02:01.225Z,21.40
2022-09-30T17:04:29.630Z,21.40
2022-09-30T17:06:59.060Z,21.40
2022-09-30T17:09:27.413Z,21.30
2022-09-30T17:12:00.029Z,21.30
2022-09-30T17:14:28.943Z,21.20
2022-09-30T17:16:57.382Z,21.20
2022-09-30T17:19:26.259Z,21.20
2022-09-30T17:21:54.599Z,21.30
2022-09-30T17:24:23.024Z,21.30
2022-09-30T17:26:51.340Z,21.30
2022-09-30T17:29:32.086Z,21.20
2022-09-30T17:32:01.392Z,21.30
2022-09-30T17:34:29.862Z,21.30
2022-09-30T17:36:59.972Z,21.20
2022-09-30T17:39:28.798Z,21.20
2022-09-30T17:42:14.833Z,21.30
2022-09-30T17:44:44.637Z,21.40
2022-09-30T17:47:12.961Z,21.40
2022-09-30T17:49:41.317Z,21.50
2022-09-30T17:52:09.791Z,21.50
2022-09-30T17:54:38.232Z,21.50
2022-09-30T17:57:07.889Z,21.50
2022-09-30T17:59:36.286Z,21.50
2022-09-30T18:02:06.199Z,21.50
2022-09-30T18:04:36.583Z,21.50
2022-09-30T18:07:04.931Z,21.40
2022-09-30T18:09:36.363Z,21.40
2022-09-30T18:12:05.127Z,21.30
2022-09-30T18:14:35.505Z,21.30
2022-09-30T18:17:04.462Z,21.20
2022-09-30T18:19:35.504Z,21.20
2022-09-30T18:22:04.063Z,21.20
2022-09-30T18:24:50.108Z,21.20
2022-09-30T18:27:21.256Z,21.20
2022-09-30T18:29:50.094Z,21.20
2022-09-30T18:32:18.558Z,21.20
2022-09-30T18:34:48.424Z,21.10
2022-09-30T18:37:16.798Z,21.10
2022-09-30T18:39:45.190Z,21.00
2022-09-30T18:42:13.542Z,21.00
2022-09-30T18:44:41.890Z,21.00
2022-09-30T18:47:10.260Z,21.00
2022-09-30T18:49:38.566Z,20.90
2022-09-30T18:52:08.634Z,21.00
2022-09-30T18:54:37.088Z,21.00
2022-09-30T18:57:05.611Z,21.00
2022-09-30T18:59:33.988Z,21.00
2022-09-30T19:02:04.095Z,21.00
2022-09-30T19:04:32.468Z,21.00
2022-09-30T19:07:00.817Z,20.90
2022-09-30T19:09:30.589Z,20.80
2022-09-30T19:11:59.440Z,20.80
2022-09-30T19:14:30.751Z,20.70
2022-09-30T19:16:59.335Z,20.60
2022-09-30T19:19:27.788Z,20.60
2022-09-30T19:22:00.325Z,20.60
2022-09-30T19:24:30.077Z,20.50
2022-09-30T19:26:58.466Z,20.50
2022-09-30T19:29:26.913Z,20.50
2022-09-30T19:31:57.412Z,20.40
2022-09-30T19:34:32.067Z,20.40
2022-09-30T19:37:01.048Z,20.40
2022-09-30T19:39:43.622Z,20.40
2022-09-30T19:42:14.397Z,20.40
2022-09-30T19:44:43.099Z,20.30
2022-09-30T19:47:12.175Z,20.30
2022-09-30T19:49:40.559Z,20.30
2022-09-30T19:52:18.543Z,20.30
2022-09-30T19:54:51.922Z,20.30
2022-09-30T19:57:20.250Z,20.30
2022-09-30T19:59:48.743Z,20.30
2022-09-30T20:02:17.253Z,20.30
2022-09-30T20:04:46.082Z,20.20
2022-09-30T20:07:16.260Z,20.20
2022-09-30T20:09:46.578Z,20.20
2022-09-30T20:12:16.390Z,20.20
2022-09-30T20:15:02.271Z,20.20
2022-09-30T20:17:30.688Z,20.10
2022-09-30T20:20:16.618Z,20.00
2022-09-30T20:22:45.029Z,20.00
2022-09-30T20:25:13.982Z,20.00
2022-09-30T20:27:51.090Z,19.90
2022-09-30T20:30:20.765Z,19.90
2022-09-30T20:32:49.197Z,19.90
2022-09-30T20:35:17.625Z,20.00
2022-09-30T20:37:46.041Z,20.00
2022-09-30T20:40:14.508Z,20.10
2022-09-30T20:42:44.271Z,20.10
2022-09-30T20:45:12.889Z,20.20
2022-09-30T20:47:43.687Z,20.20
2022-09-30T20:50:12.881Z,20.20
2022-09-30T20:52:41.296Z,20.20
2022-09-30T20:55:10.140Z,20.20
2022-09-30T20:57:38.569Z,20.20
2022-09-30T21:00:09.290Z,20.20
2022-09-30T21:02:37.708Z,20.10
2022-09-30T21:05:07.857Z,20.10
2022-09-30T21:07:36.433Z,20.00
2022-09-30T21:10:04.798Z,20.00
2022-09-30T21:12:33.343Z,19.90
2022-09-30T21:15:01.878Z,19.90
2022-09-30T21:17:31.840Z,19.90
2022-09-30T21:20:00.201Z,19.90
2022-09-30T21:22:29.117Z,19.90
2022-09-30T21:24:57.491Z,19.90
2022-09-30T21:27:25.882Z,19.90
2022-09-30T21:29:54.228Z,19.90
2022-09-30T21:32:22.542Z,19.90
2022-09-30T21:34:53.039Z,19.90
2022-09-30T21:37:21.861Z,19.90
2022-09-30T21:39:50.223Z,19.80
2022-09-30T21:42:18.919Z,19.90
2022-09-30T21:44:47.720Z,19.90
2022-09-30T21:47:16.334Z,19.80
2022-09-30T21:49:44.728Z,19.90
2022-09-30T21:52:14.497Z,19.80
2022-09-30T21:54:42.957Z,19.90
2022-09-30T21:57:11.335Z,19.80
2022-09-30T21:59:46.369Z,19.80
2022-09-30T22:02:17.035Z,19.80
2022-09-30T22:04:45.456Z,19.80
2022-09-30T22:07:16.274Z,19.80
2022-09-30T22:09:44.578Z,19.80
2022-09-30T22:12:13.015Z,19.80
2022-09-30T22:14:41.369Z,19.80
2022-09-30T22:17:10.131Z,19.90
2022-09-30T22:19:39.139Z,19.90
2022-09-30T22:22:07.626Z,20.00
2022-09-30T22:24:38.195Z,20.10
2022-09-30T22:27:07.577Z,20.20
2022-09-30T22:29:36.205Z,20.30
2022-09-30T22:32:04.660Z,20.40
2022-09-30T22:34:52.464Z,20.30
2022-09-30T22:37:37.994Z,20.40
2022-09-30T22:40:08.190Z,20.50
2022-09-30T22:42:36.643Z,20.50
2022-09-30T22:45:05.222Z,20.50
2022-09-30T22:47:33.855Z,20.60
2022-09-30T22:50:02.194Z,20.50
2022-09-30T22:52:32.032Z,20.40
2022-09-30T22:55:00.475Z,20.30
2022-09-30T22:57:30.995Z,20.30
2022-09-30T22:59:59.892Z,20.20
2022-09-30T23:02:28.395Z,20.30
2022-09-30T23:04:56.876Z,20.20
2022-09-30T23:07:25.290Z,20.20
2022-09-30T23:09:53.625Z,20.20
2022-09-30T23:12:22.082Z,20.20
2022-09-30T23:14:53.814Z,20.20
2022-09-30T23:17:22.154Z,20.20
2022-09-30T23:19:50.527Z,20.20
2022-09-30T23:22:19.979Z,20.30
2022-09-30T23:24:48.303Z,20.20
2022-09-30T23:27:16.733Z,20.20
2022-09-30T23:29:45.126Z,20.20
2022-09-30T23:32:15.087Z,20.20
2022-09-30T23:34:43.547Z,20.10
2022-09-30T23:37:11.869Z,20.10
2022-09-30T23:39:40.832Z,20.20
2022-09-30T23:42:09.154Z,20.20
2022-09-30T23:44:37.484Z,20.30
2022-09-30T23:47:21.558Z,20.30
2022-09-30T23:49:51.371Z,20.40
2022-09-30T23:52:19.679Z,20.40
2022-09-30T23:54:48.459Z,20.40
2022-09-30T23:57:16.868Z,20.40
2022-09-30T23:59:45.280Z,20.50
